createdAt,value
2022-11-03T00:01:39.333Z,15.36
2022-11-03T00:04:07.729Z,15.19
2022-11-03T00:06:34.446Z,15.21
2022-11-03T00:09:03.199Z,15.36
2022-11-03T00:11:33.843Z,15.09
2022-11-03T00:14:01.182Z,15.39
2022-11-03T00:16:27.637Z,15.39
2022-11-03T00:18:54.460Z,15.23
2022-11-03T00:21:20.805Z,15.24
2022-11-03T00:23:47.469Z,15.34
2022-11-03T00:26:21.885Z,15.32
2022-11-03T00:28:50.758Z,15.22
2022-11-03T00:31:18.325Z,15.21
2022-11-03T00:33:45.626Z,15.03
2022-11-03T00:36:14.722Z,15.23
2022-11-03T00:38:41.263Z,14.96
2022-11-03T00:41:07.642Z,14.91
2022-11-03T00:43:35.382Z,14.85
2022-11-03T00:46:01.949Z,14.85
2022-11-03T00:48:31.903Z,14.89
2022-11-03T00:51:12.198Z,15.07
2022-11-03T00:53:47.382Z,15.00
2022-11-03T00:56:25.683Z,14.91
2022-11-03T00:58:53.088Z,14.71
2022-11-03T01:01:24.885Z,14.95
2022-11-03T01:04:12.935Z,14.93
2022-11-03T01:06:50.617Z,14.86
2022-11-03T01:09:25.970Z,15.01
2022-11-03T01:12:00.180Z,15.02
2022-11-03T01:14:37.075Z,14.77
2022-11-03T01:17:08.587Z,14.97
2022-11-03T01:19:35.012Z,14.90
2022-11-03T01:22:02.659Z,14.83
2022-11-03T01:24:31.613Z,14.91
2022-11-03T01:26:58.123Z,15.08
2022-11-03T01:29:24.512Z,14.89
2022-11-03T01:31:51.043Z,15.15
2022-11-03T01:34:19.614Z,14.85
2022-11-03T01:36:46.496Z,15.08
2022-11-03T01:39:14.635Z,15.25
2022-11-03T01:41:43.043Z,15.20
2022-11-03T01:44:09.288Z,15.35
2022-11-03T01:46:41.280Z,15.19
2022-11-03T01:49:16.971Z,15.31
2022-11-03T01:51:50.072Z,15.23
2022-11-03T01:54:21.440Z,15.08
2022-11-03T01:56:48.071Z,14.96
2022-11-03T01:59:16.758Z,15.23
2022-11-03T02:01:45.369Z,15.13
2022-11-03T02:04:27.009Z,15.36
2022-11-03T02:07:03.263Z,15.39
2022-11-03T02:09:31.085Z,15.00
2022-11-03T02:12:06.664Z,15.20
2022-11-03T02:14:34.983Z,15.26
2022-11-03T02:17:05.976Z,15.17
2022-11-03T02:19:47.223Z,15.03
2022-11-03T02:22:32.061Z,15.37
2022-11-03T02:25:05.404Z,15.34
2022-11-03T02:27:31.860Z,15.25
2022-11-03T02:29:58.878Z,15.32
2022-11-03T02:32:33.550Z,15.21
2022-11-03T02:35:12.269Z,15.36
2022-11-03T02:37:44.528Z,15.32
2022-11-03T02:40:18.968Z,14.97
2022-11-03T02:42:48.779Z,15.20
2022-11-03T02:45:18.925Z,15.33
2022-11-03T02:47:46.591Z,15.21
2022-11-03T02:50:13.481Z,15.35
2022-11-03T02:52:46.087Z,15.33
2022-11-03T02:55:20.582Z,15.18
2022-11-03T02:57:54.020Z,15.32
2022-11-03T03:00:20.857Z,15.14
2022-11-03T03:02:57.324Z,15.30
2022-11-03T03:05:27.419Z,15.09
2022-11-03T03:08:00.789Z,15.30
2022-11-03T03:10:32.436Z,15.28
2022-11-03T03:13:00.566Z,15.25
2022-11-03T03:15:38.730Z,15.15
2022-11-03T03:18:42.170Z,15.21
2022-11-03T03:21:15.207Z,14.99
2022-11-03T03:23:49.819Z,14.95
2022-11-03T03:26:25.815Z,14.95
2022-11-03T03:29:26.827Z,15.23
2022-11-03T03:31:57.688Z,15.10
2022-11-03T03:34:35.776Z,15.24
2022-11-03T03:37:05.145Z,15.06
2022-11-03T03:39:36.149Z,15.24
2022-11-03T03:42:04.757Z,15.11
2022-11-03T03:44:32.658Z,15.09
2022-11-03T03:47:02.238Z,15.29
2022-11-03T03:49:28.773Z,15.22
2022-11-03T03:51:55.100Z,15.19
2022-11-03T03:54:21.427Z,15.08
2022-11-03T03:56:59.217Z,15.03
2022-11-03T03:59:25.562Z,15.08
2022-11-03T04:01:52.035Z,15.33
2022-11-03T04:04:18.468Z,15.28
2022-11-03T04:06:44.798Z,15.43
2022-11-03T04:09:11.352Z,15.11
2022-11-03T04:11:56.132Z,14.63
2022-11-03T04:14:40.939Z,15.29
2022-11-03T04:17:38.017Z,15.38
2022-11-03T04:20:31.073Z,15.21
2022-11-03T04:22:57.480Z,15.23
2022-11-03T04:25:23.809Z,15.30
2022-11-03T04:27:50.131Z,15.34
2022-11-03T04:30:20.926Z,15.00
2022-11-03T04:32:49.751Z,15.16
2022-11-03T04:35:27.548Z,15.31
2022-11-03T04:38:02.074Z,15.17
2022-11-03T04:40:29.069Z,15.10
2022-11-03T04:42:56.012Z,15.30
2022-11-03T04:45:25.963Z,15.37
2022-11-03T04:47:52.984Z,15.26
2022-11-03T04:50:21.236Z,15.11
2022-11-03T04:52:48.872Z,15.30
2022-11-03T04:55:18.247Z,15.31
2022-11-03T04:57:45.352Z,15.02
2022-11-03T05:00:19.464Z,15.22
2022-11-03T05:02:51.530Z,15.09
2022-11-03T05:05:23.246Z,15.37
2022-11-03T05:07:53.284Z,15.20
2022-11-03T05:10:24.110Z,15.36
2022-11-03T05:12:51.604Z,15.14
2022-11-03T05:15:23.744Z,15.39
2022-11-03T05:17:50.185Z,15.28
2022-11-03T05:20:40.410Z,15.24
2022-11-03T05:23:10.955Z,15.07
2022-11-03T05:25:41.039Z,15.22
2022-11-03T05:28:27.761Z,15.39
2022-11-03T05:30:54.869Z,15.28
2022-11-03T05:33:29.301Z,15.38
2022-11-03T05:35:59.501Z,14.89
2022-11-03T05:38:29.018Z,15.18
2022-11-03T05:40:55.319Z,15.41
2022-11-03T05:43:21.833Z,15.13
2022-11-03T05:45:55.499Z,15.20
2022-11-03T05:48:35.078Z,15.36
2022-11-03T05:51:10.589Z,15.33
2022-11-03T05:53:43.234Z,15.11
2022-11-03T05:56:18.673Z,15.16
2022-11-03T05:58:46.134Z,15.30
2022-11-03T06:01:31.366Z,15.37
2022-11-03T06:04:18.669Z,15.30
2022-11-03T06:06:55.576Z,15.15
2022-11-03T06:09:25.109Z,15.02
2022-11-03T06:11:56.167Z,15.25
2022-11-03T06:14:25.253Z,15.24
2022-11-03T06:16:56.709Z,15.24
2022-11-03T06:19:31.252Z,15.27
2022-11-03T06:22:02.543Z,15.27
2022-11-03T06:24:31.750Z,15.10
2022-11-03T06:26:58.687Z,15.05
2022-11-03T06:29:25.170Z,15.06
2022-11-03T06:31:56.079Z,15.20
2022-11-03T06:34:37.129Z,15.22
2022-11-03T06:37:19.046Z,14.90
2022-11-03T06:39:46.027Z,14.84
2022-11-03T06:42:14.628Z,15.27
2022-11-03T06:44:44.018Z,15.17
2022-11-03T06:47:32.449Z,14.85
2022-11-03T06:50:00.126Z,15.03
2022-11-03T06:52:28.737Z,15.18
2022-11-03T06:55:01.794Z,15.17
2022-11-03T06:57:32.059Z,14.94
2022-11-03T07:00:13.435Z,15.01
2022-11-03T07:03:14.526Z,15.25
2022-11-03T07:05:41.735Z,15.12
2022-11-03T07:08:28.466Z,15.18
2022-11-03T07:11:02.639Z,15.20
2022-11-03T07:13:31.664Z,15.02
2022-11-03T07:15:58.224Z,15.31
2022-11-03T07:18:44.044Z,15.31
2022-11-03T07:21:27.192Z,15.19
2022-11-03T07:23:53.797Z,15.32
2022-11-03T07:26:20.154Z,15.30
2022-11-03T07:28:48.364Z,15.13
2022-11-03T07:31:25.027Z,15.18
2022-11-03T07:33:58.068Z,15.36
2022-11-03T07:36:27.309Z,15.38
2022-11-03T07:38:56.331Z,15.29
2022-11-03T07:41:31.136Z,15.41
2022-11-03T07:44:01.611Z,15.31
2022-11-03T07:46:27.953Z,15.26
2022-11-03T07:48:59.080Z,15.33
2022-11-03T07:51:32.436Z,15.26
2022-11-03T07:54:20.584Z,15.13
2022-11-03T07:56:57.072Z,15.33
2022-11-03T07:59:31.059Z,15.37
2022-11-03T08:01:58.880Z,15.52
2022-11-03T08:04:28.621Z,15.55
2022-11-03T08:06:55.183Z,15.43
2022-11-03T08:09:21.828Z,15.47
2022-11-03T08:11:49.226Z,15.62
2022-11-03T08:14:15.734Z,15.64
2022-11-03T08:16:42.481Z,15.41
2022-11-03T08:19:09.203Z,15.49
2022-11-03T08:21:35.608Z,15.63
2022-11-03T08:24:02.035Z,15.51
2022-11-03T08:26:28.869Z,15.57
2022-11-03T08:28:55.289Z,15.58
2022-11-03T08:31:21.616Z,15.67
2022-11-03T08:33:47.942Z,15.61
2022-11-03T08:36:14.339Z,15.57
2022-11-03T08:38:40.781Z,15.84
2022-11-03T08:41:07.157Z,15.63
2022-11-03T08:43:33.561Z,15.66
2022-11-03T08:46:08.166Z,15.69
2022-11-03T08:48:42.045Z,15.86
2022-11-03T08:51:10.139Z,15.70
2022-11-03T08:53:36.495Z,15.80
2022-11-03T08:56:02.812Z,15.97
2022-11-03T08:58:29.154Z,15.87
2022-11-03T09:00:55.454Z,15.99
2022-11-03T09:03:21.836Z,16.15
2022-11-03T09:05:48.510Z,16.16
2022-11-03T09:11:01.127Z,16.07
2022-11-03T09:13:27.784Z,16.13
2022-11-03T09:15:54.110Z,16.26
2022-11-03T09:18:20.420Z,16.25
2022-11-03T09:20:46.755Z,16.37
2022-11-03T09:23:13.080Z,16.33
2022-11-03T09:25:39.416Z,16.35
2022-11-03T09:28:06.063Z,16.34
2022-11-03T09:30:32.713Z,16.25
2022-11-03T09:32:59.050Z,16.47
2022-11-03T09:35:25.371Z,16.29
2022-11-03T09:37:51.706Z,16.40
2022-11-03T09:40:19.549Z,16.23
2022-11-03T09:42:45.869Z,16.49
2022-11-03T09:45:12.311Z,16.68
2022-11-03T09:47:41.464Z,16.52
2022-11-03T09:50:14.924Z,16.52
2022-11-03T09:52:41.362Z,16.56
2022-11-03T09:55:17.336Z,16.81
2022-11-03T09:57:45.495Z,16.75
2022-11-03T10:00:20.877Z,16.56
2022-11-03T10:02:48.196Z,16.85
2022-11-03T10:05:19.350Z,16.69
2022-11-03T10:07:45.988Z,16.73
2022-11-03T10:10:18.731Z,16.71
2022-11-03T10:12:46.531Z,16.71
2022-11-03T10:15:17.526Z,16.70
2022-11-03T10:17:45.071Z,16.84
2022-11-03T10:20:16.957Z,16.81
2022-11-03T10:22:45.386Z,16.78
2022-11-03T10:25:39.208Z,16.88
2022-11-03T10:28:23.387Z,16.83
2022-11-03T10:33:40.358Z,16.87
2022-11-03T10:36:24.057Z,16.88
2022-11-03T10:38:50.597Z,16.85
2022-11-03T10:41:28.184Z,17.01
2022-11-03T10:44:02.159Z,17.13
2022-11-03T10:46:49.036Z,17.08
2022-11-03T10:49:19.027Z,17.19
2022-11-03T10:51:49.247Z,17.12
2022-11-03T10:54:18.375Z,17.19
2022-11-03T10:56:46.520Z,17.25
2022-11-03T10:59:21.362Z,17.16
2022-11-03T11:01:48.412Z,16.92
2022-11-03T11:04:19.905Z,17.32
2022-11-03T11:06:46.911Z,16.57
2022-11-03T11:09:20.291Z,17.23
2022-11-03T11:12:13.014Z,17.47
2022-11-03T11:14:52.573Z,17.44
2022-11-03T11:17:49.474Z,17.51
2022-11-03T11:20:21.279Z,17.52
2022-11-03T11:22:49.537Z,17.51
2022-11-03T11:25:18.379Z,17.55
2022-11-03T11:27:44.719Z,17.48
2022-11-03T11:30:20.162Z,17.50
2022-11-03T11:32:46.505Z,17.50
2022-11-03T11:35:23.665Z,17.42
2022-11-03T11:37:50.001Z,17.31
2022-11-03T11:40:25.377Z,17.47
2022-11-03T11:43:07.400Z,17.50
2022-11-03T11:46:11.687Z,17.53
2022-11-03T11:48:38.155Z,17.27
2022-11-03T11:51:10.376Z,17.39
2022-11-03T11:53:44.853Z,17.28
2022-11-03T11:56:16.316Z,17.30
2022-11-03T11:58:48.980Z,17.34
2022-11-03T12:01:30.927Z,17.74
2022-11-03T12:04:00.482Z,17.67
2022-11-03T12:06:41.124Z,18.02
2022-11-03T12:09:27.981Z,17.72
2022-11-03T12:12:06.853Z,18.11
2022-11-03T12:14:39.030Z,18.11
2022-11-03T12:17:18.051Z,18.00
2022-11-03T12:19:49.847Z,18.03
2022-11-03T12:22:26.089Z,17.88
2022-11-03T12:24:58.617Z,18.00
2022-11-03T12:27:24.893Z,18.01
2022-11-03T12:29:58.026Z,18.02
2022-11-03T12:32:33.588Z,18.00
2022-11-03T12:35:05.524Z,17.88
2022-11-03T12:37:32.077Z,17.79
2022-11-03T12:39:58.390Z,17.92
2022-11-03T12:42:25.252Z,17.88
2022-11-03T12:44:52.296Z,17.67
2022-11-03T12:47:20.010Z,17.72
2022-11-03T12:49:46.340Z,17.86
2022-11-03T12:52:12.659Z,17.80
2022-11-03T12:54:39.597Z,17.56
2022-11-03T12:57:05.946Z,18.02
2022-11-03T12:59:32.382Z,17.90
2022-11-03T13:01:58.895Z,17.88
2022-11-03T13:04:25.385Z,17.83
2022-11-03T13:06:51.716Z,17.98
2022-11-03T13:09:18.206Z,17.81
2022-11-03T13:12:02.847Z,18.23
2022-11-03T13:14:29.195Z,18.13
2022-11-03T13:16:55.518Z,17.92
2022-11-03T13:19:22.363Z,17.88
2022-11-03T13:21:48.738Z,17.98
2022-11-03T13:24:15.054Z,18.05
2022-11-03T13:26:41.395Z,17.98
2022-11-03T13:29:07.730Z,17.74
2022-11-03T13:31:34.350Z,18.15
2022-11-03T13:34:00.672Z,17.95
2022-11-03T13:36:27.059Z,18.08
2022-11-03T13:38:53.451Z,17.87
2022-11-03T13:41:19.855Z,18.08
2022-11-03T13:43:46.177Z,17.97
2022-11-03T13:46:12.757Z,17.74
2022-11-03T13:51:25.671Z,17.93
2022-11-03T13:59:24.927Z,17.70
2022-11-03T14:07:07.099Z,17.70
2022-11-03T14:09:33.981Z,17.89
2022-11-03T14:12:19.394Z,17.75
2022-11-03T14:14:45.738Z,17.54
2022-11-03T14:17:12.422Z,17.76
2022-11-03T14:19:44.861Z,17.69
2022-11-03T14:22:13.759Z,17.50
2022-11-03T14:24:40.069Z,17.01
2022-11-03T14:27:06.558Z,16.81
2022-11-03T14:29:32.956Z,16.48
2022-11-03T14:31:59.609Z,16.34
2022-11-03T14:34:26.139Z,16.56
2022-11-03T14:36:52.783Z,16.65
2022-11-03T14:39:19.171Z,16.59
2022-11-03T14:42:03.650Z,16.39
2022-11-03T14:44:35.539Z,16.33
2022-11-03T14:47:03.839Z,16.13
2022-11-03T14:49:31.468Z,15.93
2022-11-03T14:51:59.502Z,15.85
2022-11-03T14:54:26.389Z,15.90
2022-11-03T14:56:53.734Z,15.37
2022-11-03T14:59:20.994Z,15.71
2022-11-03T15:01:48.901Z,15.49
2022-11-03T15:04:15.358Z,15.36
2022-11-03T15:06:41.799Z,15.20
2022-11-03T15:11:35.810Z,15.21
2022-11-03T15:14:04.976Z,15.19
2022-11-03T15:16:31.620Z,15.32
2022-11-03T15:18:59.076Z,15.27
2022-11-03T15:21:25.398Z,15.50
2022-11-03T15:26:38.028Z,15.55
2022-11-03T15:29:04.352Z,15.61
2022-11-03T15:31:30.864Z,15.54
2022-11-03T15:33:57.217Z,15.82
2022-11-03T15:36:24.197Z,15.73
2022-11-03T15:38:50.579Z,15.48
2022-11-03T15:41:17.038Z,15.74
2022-11-03T15:43:44.789Z,15.71
2022-11-03T15:46:11.547Z,15.38
2022-11-03T15:48:38.805Z,15.29
2022-11-03T15:51:05.581Z,15.74
2022-11-03T15:53:31.996Z,15.69
2022-11-03T15:55:58.510Z,15.65
2022-11-03T15:58:24.900Z,15.41
2022-11-03T16:00:51.402Z,15.60
2022-11-03T16:03:17.975Z,15.69
2022-11-03T16:05:44.330Z,16.01
2022-11-03T16:08:11.110Z,16.09
2022-11-03T16:10:38.139Z,15.79
2022-11-03T16:13:04.496Z,16.03
2022-11-03T16:15:30.785Z,16.05
2022-11-03T16:18:02.511Z,16.03
2022-11-03T16:20:30.556Z,16.26
2022-11-03T16:22:57.046Z,16.20
2022-11-03T16:25:23.934Z,16.05
2022-11-03T16:27:50.561Z,15.96
2022-11-03T16:30:16.942Z,15.96
2022-11-03T16:32:44.729Z,16.08
2022-11-03T16:35:11.188Z,16.11
2022-11-03T16:37:37.512Z,16.10
2022-11-03T16:40:05.301Z,16.16
2022-11-03T16:42:38.162Z,15.77
2022-11-03T16:45:15.158Z,15.97
2022-11-03T16:47:41.473Z,15.70
2022-11-03T16:50:08.233Z,15.50
2022-11-03T16:52:34.567Z,15.61
2022-11-03T16:55:00.945Z,15.57
2022-11-03T16:57:27.253Z,15.71
2022-11-03T16:59:53.703Z,15.79
2022-11-03T17:02:20.363Z,15.55
2022-11-03T17:04:46.750Z,15.70
2022-11-03T17:07:13.132Z,15.92
2022-11-03T17:09:39.548Z,15.91
2022-11-03T17:12:06.086Z,15.85
2022-11-03T17:14:32.431Z,16.02
2022-11-03T17:16:58.728Z,15.89
2022-11-03T17:19:25.142Z,16.03
2022-11-03T17:21:51.469Z,15.91
2022-11-03T17:24:17.830Z,15.95
2022-11-03T17:27:26.425Z,16.16
2022-11-03T17:30:00.230Z,16.12
2022-11-03T17:32:34.338Z,16.20
2022-11-03T17:35:00.806Z,16.15
2022-11-03T17:37:27.886Z,16.16
2022-11-03T17:39:55.655Z,16.11
2022-11-03T17:42:27.290Z,16.06
2022-11-03T17:44:57.153Z,16.12
2022-11-03T17:47:24.425Z,16.12
2022-11-03T17:49:51.059Z,16.17
2022-11-03T17:52:23.441Z,15.87
2022-11-03T17:54:55.593Z,16.12
2022-11-03T17:57:22.855Z,16.16
2022-11-03T17:59:51.040Z,16.21
2022-11-03T18:02:21.521Z,16.05
2022-11-03T18:04:48.787Z,16.33
2022-11-03T18:07:20.267Z,16.04
2022-11-03T18:09:47.406Z,16.19
2022-11-03T18:12:38.666Z,16.37
2022-11-03T18:15:14.054Z,16.21
2022-11-03T18:17:40.834Z,15.66
2022-11-03T18:20:17.644Z,15.91
2022-11-03T18:22:45.034Z,16.21
2022-11-03T18:25:21.137Z,16.13
2022-11-03T18:27:47.948Z,16.16
2022-11-03T18:30:18.340Z,16.28
2022-11-03T18:32:45.766Z,16.31
2022-11-03T18:35:23.930Z,16.05
2022-11-03T18:37:50.797Z,15.93
2022-11-03T18:40:18.800Z,15.94
2022-11-03T18:42:45.166Z,15.93
2022-11-03T18:45:17.295Z,15.57
2022-11-03T18:47:44.685Z,15.76
2022-11-03T18:50:16.379Z,15.57
2022-11-03T18:52:47.613Z,15.43
2022-11-03T18:55:15.928Z,14.89
2022-11-03T18:57:43.084Z,15.19
2022-11-03T19:00:17.478Z,15.30
2022-11-03T19:02:43.710Z,15.33
2022-11-03T19:05:13.844Z,15.32
2022-11-03T19:07:42.126Z,15.02
2022-11-03T19:10:13.025Z,15.26
2022-11-03T19:12:43.157Z,15.31
2022-11-03T19:15:17.802Z,15.22
2022-11-03T19:17:44.385Z,15.25
2022-11-03T19:20:15.440Z,15.31
2022-11-03T19:22:41.834Z,15.27
2022-11-03T19:25:08.498Z,14.92
2022-11-03T19:27:37.680Z,15.05
2022-11-03T19:30:05.243Z,14.89
2022-11-03T19:32:36.790Z,15.00
2022-11-03T19:35:06.901Z,15.29
2022-11-03T19:37:35.760Z,15.46
2022-11-03T19:40:20.534Z,15.21
2022-11-03T19:42:48.563Z,15.57
2022-11-03T19:45:17.661Z,15.53
2022-11-03T19:50:46.078Z,15.27
2022-11-03T19:53:19.965Z,14.70
2022-11-03T19:55:47.016Z,14.99
2022-11-03T19:58:19.653Z,15.54
2022-11-03T20:00:46.876Z,15.47
2022-11-03T20:03:19.799Z,15.60
2022-11-03T20:05:57.220Z,15.64
2022-11-03T20:08:35.516Z,15.62
2022-11-03T20:11:01.891Z,15.67
2022-11-03T20:13:41.034Z,15.62
2022-11-03T20:16:15.857Z,15.68
2022-11-03T20:18:43.803Z,15.53
2022-11-03T20:21:18.964Z,15.26
2022-11-03T20:23:48.512Z,15.38
2022-11-03T20:26:19.393Z,15.11
2022-11-03T20:28:46.348Z,15.50
2022-11-03T20:31:14.288Z,15.41
2022-11-03T20:33:40.680Z,15.41
2022-11-03T20:36:13.973Z,15.72
2022-11-03T20:38:40.370Z,15.32
2022-11-03T20:41:13.998Z,15.54
2022-11-03T20:43:43.837Z,15.35
2022-11-03T20:46:27.866Z,15.55
2022-11-03T20:48:57.662Z,15.47
2022-11-03T20:51:27.276Z,15.60
2022-11-03T20:53:55.687Z,15.76
2022-11-03T20:56:25.121Z,15.75
2022-11-03T20:58:51.916Z,15.72
2022-11-03T21:01:35.864Z,15.72
2022-11-03T21:04:03.408Z,15.55
2022-11-03T21:06:32.040Z,15.57
2022-11-03T21:08:58.960Z,15.56
2022-11-03T21:11:28.818Z,15.47
2022-11-03T21:14:01.102Z,15.35
2022-11-03T21:16:48.345Z,15.73
2022-11-03T21:19:36.020Z,15.55
2022-11-03T21:22:02.467Z,15.55
2022-11-03T21:24:28.775Z,15.26
2022-11-03T21:26:55.158Z,15.05
2022-11-03T21:29:38.891Z,15.07
2022-11-03T21:32:11.388Z,15.30
2022-11-03T21:34:37.941Z,15.26
2022-11-03T21:37:04.925Z,15.24
2022-11-03T21:39:31.680Z,15.16
2022-11-03T21:42:16.603Z,15.33
2022-11-03T21:44:43.007Z,15.12
2022-11-03T21:47:11.245Z,15.37
2022-11-03T21:49:43.514Z,15.14
2022-11-03T21:52:18.095Z,14.92
2022-11-03T21:54:44.899Z,14.51
2022-11-03T21:57:15.241Z,14.46
2022-11-03T21:59:41.714Z,14.55
2022-11-03T22:02:11.818Z,13.90
2022-11-03T22:04:38.221Z,14.19
2022-11-03T22:07:04.681Z,14.10
2022-11-03T22:09:31.018Z,14.11
2022-11-03T22:11:57.336Z,13.67
2022-11-03T22:14:23.968Z,13.87
2022-11-03T22:16:50.333Z,13.68
2022-11-03T22:19:40.595Z,14.00
2022-11-03T22:22:33.419Z,13.94
2022-11-03T22:25:18.828Z,13.99
2022-11-03T22:27:45.954Z,13.90
2022-11-03T22:30:30.896Z,13.95
2022-11-03T22:32:58.000Z,13.87
2022-11-03T22:35:44.061Z,13.71
2022-11-03T22:38:15.190Z,14.07
2022-11-03T22:41:01.758Z,14.14
2022-11-03T22:43:47.068Z,13.91
2022-11-03T22:46:14.899Z,13.64
2022-11-03T22:48:41.211Z,13.85
2022-11-03T22:51:13.025Z,14.11
2022-11-03T22:53:58.439Z,14.15
2022-11-03T22:56:26.513Z,14.01
2022-11-03T22:58:52.893Z,13.83
2022-11-03T23:01:21.511Z,13.73
2022-11-03T23:03:48.842Z,13.54
2022-11-03T23:06:20.418Z,14.23
2022-11-03T23:08:48.547Z,14.11
2022-11-03T23:11:19.699Z,14.10
2022-11-03T23:13:47.809Z,14.01
2022-11-03T23:16:18.592Z,14.00
2022-11-03T23:19:03.959Z,13.60
2022-11-03T23:21:31.085Z,13.95
2022-11-03T23:24:16.041Z,13.81
2022-11-03T23:26:43.042Z,14.12
2022-11-03T23:29:10.301Z,13.95
2022-11-03T23:31:37.335Z,14.00
2022-11-03T23:34:04.918Z,14.19
2022-11-03T23:36:31.400Z,13.80
2022-11-03T23:38:58.942Z,14.10
2022-11-03T23:41:26.494Z,14.15
2022-11-03T23:43:53.109Z,14.18
2022-11-03T23:46:40.533Z,14.38
2022-11-03T23:49:07.519Z,14.40
2022-11-03T23:51:35.201Z,14.39
2022-11-03T23:54:02.442Z,14.40
2022-11-03T23:56:51.826Z,14.27
2022-11-03T23:59:18.213Z,14.32
